sensor_id;sensor_type;location;lat;lon;timestamp;P1;durP1;ratioP1;P2;durP2;ratioP2
15449;SDS011;7826;49.784;9.934;2023-02-28T00:00:35;3.00;;;2.73;;
15449;SDS011;7826;49.784;9.934;2023-02-28T00:03:02;3.30;;;2.57;;
15449;SDS011;7826;49.784;9.934;2023-02-28T00:05:29;2.43;;;2.20;;
15449;SDS011;7826;49.784;9.934;2023-02-28T00:07:55;2.70;;;2.50;;
15449;SDS011;7826;49.784;9.934;2023-02-28T00:10:23;2.40;;;2.20;;
15449;SDS011;7826;49.784;9.934;2023-02-28T00:12:54;4.63;;;2.57;;
15449;SDS011;7826;49.784;9.934;2023-02-28T00:15:24;3.73;;;2.23;;
15449;SDS011;7826;49.784;9.934;2023-02-28T00:17:51;3.37;;;2.40;;
15449;SDS011;7826;49.784;9.934;2023-02-28T00:20:17;5.27;;;2.67;;
15449;SDS011;7826;49.784;9.934;2023-02-28T00:22:45;4.37;;;2.80;;
15449;SDS011;7826;49.784;9.934;2023-02-28T00:25:15;2.60;;;2.17;;
15449;SDS011;7826;49.784;9.934;2023-02-28T00:27:43;2.57;;;2.30;;
15449;SDS011;7826;49.784;9.934;2023-02-28T00:30:12;2.53;;;2.33;;
15449;SDS011;7826;49.784;9.934;2023-02-28T00:32:43;2.37;;;2.17;;
15449;SDS011;7826;49.784;9.934;2023-02-28T00:35:10;2.63;;;2.43;;
15449;SDS011;7826;49.784;9.934;2023-02-28T00:37:38;5.33;;;2.73;;
15449;SDS011;7826;49.784;9.934;2023-02-28T00:40:05;3.27;;;2.17;;
15449;SDS011;7826;49.784;9.934;2023-02-28T00:42:32;3.20;;;2.30;;
15449;SDS011;7826;49.784;9.934;2023-02-28T00:45:00;2.57;;;2.33;;
15449;SDS011;7826;49.784;9.934;2023-02-28T00:47:26;2.43;;;2.23;;
15449;SDS011;7826;49.784;9.934;2023-02-28T00:49:53;2.40;;;2.20;;
15449;SDS011;7826;49.784;9.934;2023-02-28T00:52:19;3.60;;;2.50;;
15449;SDS011;7826;49.784;9.934;2023-02-28T00:54:45;2.70;;;2.43;;
15449;SDS011;7826;49.784;9.934;2023-02-28T00:57:11;2.73;;;1.90;;
15449;SDS011;7826;49.784;9.934;2023-02-28T00:59:38;2.43;;;2.17;;
15449;SDS011;7826;49.784;9.934;2023-02-28T01:02:04;2.17;;;1.97;;
15449;SDS011;7826;49.784;9.934;2023-02-28T01:04:30;3.13;;;2.13;;
15449;SDS011;7826;49.784;9.934;2023-02-28T01:06:56;2.53;;;2.33;;
15449;SDS011;7826;49.784;9.934;2023-02-28T01:09:23;3.97;;;2.30;;
15449;SDS011;7826;49.784;9.934;2023-02-28T01:11:49;2.60;;;2.43;;
15449;SDS011;7826;49.784;9.934;2023-02-28T01:14:15;2.67;;;2.37;;
15449;SDS011;7826;49.784;9.934;2023-02-28T01:16:43;3.33;;;2.23;;
15449;SDS011;7826;49.784;9.934;2023-02-28T01:19:10;2.43;;;1.73;;
15449;SDS011;7826;49.784;9.934;2023-02-28T01:21:36;2.93;;;2.10;;
15449;SDS011;7826;49.784;9.934;2023-02-28T01:24:03;3.20;;;2.90;;
15449;SDS011;7826;49.784;9.934;2023-02-28T01:26:30;3.13;;;2.67;;
15449;SDS011;7826;49.784;9.934;2023-02-28T01:28:57;4.70;;;2.50;;
15449;SDS011;7826;49.784;9.934;2023-02-28T01:31:23;2.50;;;2.30;;
15449;SDS011;7826;49.784;9.934;2023-02-28T01:33:50;2.87;;;2.20;;
15449;SDS011;7826;49.784;9.934;2023-02-28T01:36:19;4.07;;;2.67;;
15449;SDS011;7826;49.784;9.934;2023-02-28T01:38:47;3.10;;;2.17;;
15449;SDS011;7826;49.784;9.934;2023-02-28T01:41:19;3.87;;;3.47;;
15449;SDS011;7826;49.784;9.934;2023-02-28T01:46:13;4.33;;;2.43;;
15449;SDS011;7826;49.784;9.934;2023-02-28T01:48:45;2.47;;;2.10;;
15449;SDS011;7826;49.784;9.934;2023-02-28T01:51:20;2.43;;;2.27;;
15449;SDS011;7826;49.784;9.934;2023-02-28T01:53:53;7.07;;;2.67;;
15449;SDS011;7826;49.784;9.934;2023-02-28T01:56:30;2.57;;;2.10;;
15449;SDS011;7826;49.784;9.934;2023-02-28T01:59:00;7.00;;;2.47;;
15449;SDS011;7826;49.784;9.934;2023-02-28T02:01:27;3.77;;;2.33;;
15449;SDS011;7826;49.784;9.934;2023-02-28T02:03:55;3.77;;;2.50;;
15449;SDS011;7826;49.784;9.934;2023-02-28T02:06:24;3.00;;;2.60;;
15449;SDS011;7826;49.784;9.934;2023-02-28T02:08:54;4.03;;;2.63;;
15449;SDS011;7826;49.784;9.934;2023-02-28T02:11:21;3.80;;;2.37;;
15449;SDS011;7826;49.784;9.934;2023-02-28T02:16:42;3.30;;;2.20;;
15449;SDS011;7826;49.784;9.934;2023-02-28T02:24:58;4.17;;;2.73;;
15449;SDS011;7826;49.784;9.934;2023-02-28T02:27:57;3.67;;;2.50;;
15449;SDS011;7826;49.784;9.934;2023-02-28T02:36:12;4.87;;;2.77;;
15449;SDS011;7826;49.784;9.934;2023-02-28T02:44:11;2.90;;;2.20;;
15449;SDS011;7826;49.784;9.934;2023-02-28T02:46:45;2.30;;;2.10;;
15449;SDS011;7826;49.784;9.934;2023-02-28T02:49:13;2.43;;;2.17;;
15449;SDS011;7826;49.784;9.934;2023-02-28T02:51:45;4.67;;;3.47;;
15449;SDS011;7826;49.784;9.934;2023-02-28T02:54:24;3.53;;;2.57;;
15449;SDS011;7826;49.784;9.934;2023-02-28T02:56:55;3.13;;;2.47;;
15449;SDS011;7826;49.784;9.934;2023-02-28T02:59:24;3.77;;;2.40;;
15449;SDS011;7826;49.784;9.934;2023-02-28T03:01:57;3.60;;;2.67;;
15449;SDS011;7826;49.784;9.934;2023-02-28T03:04:28;2.97;;;2.67;;
15449;SDS011;7826;49.784;9.934;2023-02-28T03:06:58;4.57;;;2.80;;
15449;SDS011;7826;49.784;9.934;2023-02-28T03:09:24;3.77;;;2.37;;
15449;SDS011;7826;49.784;9.934;2023-02-28T03:11:52;2.13;;;2.03;;
15449;SDS011;7826;49.784;9.934;2023-02-28T03:24:54;3.17;;;2.30;;
15449;SDS011;7826;49.784;9.934;2023-02-28T03:27:48;2.17;;;1.87;;
15449;SDS011;7826;49.784;9.934;2023-02-28T03:33:16;4.30;;;2.67;;
15449;SDS011;7826;49.784;9.934;2023-02-28T03:35:51;2.60;;;2.40;;
15449;SDS011;7826;49.784;9.934;2023-02-28T03:38:32;2.87;;;2.60;;
15449;SDS011;7826;49.784;9.934;2023-02-28T03:41:05;4.97;;;2.87;;
15449;SDS011;7826;49.784;9.934;2023-02-28T03:43:40;2.47;;;2.27;;
15449;SDS011;7826;49.784;9.934;2023-02-28T03:46:12;2.97;;;2.17;;
15449;SDS011;7826;49.784;9.934;2023-02-28T03:48:45;3.83;;;3.03;;
15449;SDS011;7826;49.784;9.934;2023-02-28T03:51:17;3.10;;;2.30;;
15449;SDS011;7826;49.784;9.934;2023-02-28T03:53:50;3.20;;;2.50;;
15449;SDS011;7826;49.784;9.934;2023-02-28T03:56:22;3.57;;;2.73;;
15449;SDS011;7826;49.784;9.934;2023-02-28T04:01:30;3.10;;;2.90;;
15449;SDS011;7826;49.784;9.934;2023-02-28T04:04:11;3.47;;;2.50;;
15449;SDS011;7826;49.784;9.934;2023-02-28T04:06:40;2.33;;;2.13;;
15449;SDS011;7826;49.784;9.934;2023-02-28T04:09:07;3.57;;;2.37;;
15449;SDS011;7826;49.784;9.934;2023-02-28T04:11:36;2.70;;;2.47;;
15449;SDS011;7826;49.784;9.934;2023-02-28T04:14:04;3.03;;;2.73;;
15449;SDS011;7826;49.784;9.934;2023-02-28T04:16:32;3.40;;;3.10;;
15449;SDS011;7826;49.784;9.934;2023-02-28T04:19:00;3.10;;;2.53;;
15449;SDS011;7826;49.784;9.934;2023-02-28T04:21:31;2.73;;;2.53;;
15449;SDS011;7826;49.784;9.934;2023-02-28T04:23:59;3.70;;;2.87;;
15449;SDS011;7826;49.784;9.934;2023-02-28T04:26:30;4.37;;;2.97;;
15449;SDS011;7826;49.784;9.934;2023-02-28T04:29:03;5.53;;;2.70;;
15449;SDS011;7826;49.784;9.934;2023-02-28T04:31:30;2.83;;;2.57;;
15449;SDS011;7826;49.784;9.934;2023-02-28T04:33:57;7.63;;;3.03;;
15449;SDS011;7826;49.784;9.934;2023-02-28T04:36:23;2.80;;;2.60;;
15449;SDS011;7826;49.784;9.934;2023-02-28T04:38:50;3.00;;;2.27;;
15449;SDS011;7826;49.784;9.934;2023-02-28T04:41:16;3.33;;;2.53;;
15449;SDS011;7826;49.784;9.934;2023-02-28T04:43:43;3.67;;;2.67;;
15449;SDS011;7826;49.784;9.934;2023-02-28T04:46:09;5.73;;;2.70;;
15449;SDS011;7826;49.784;9.934;2023-02-28T04:48:37;3.70;;;3.17;;
15449;SDS011;7826;49.784;9.934;2023-02-28T04:51:06;4.43;;;3.10;;
15449;SDS011;7826;49.784;9.934;2023-02-28T04:53:53;3.70;;;2.70;;
15449;SDS011;7826;49.784;9.934;2023-02-28T04:56:37;5.03;;;2.43;;
15449;SDS011;7826;49.784;9.934;2023-02-28T04:59:04;5.67;;;2.80;;
15449;SDS011;7826;49.784;9.934;2023-02-28T05:01:33;4.03;;;2.23;;
15449;SDS011;7826;49.784;9.934;2023-02-28T05:04:01;3.07;;;2.77;;
15449;SDS011;7826;49.784;9.934;2023-02-28T05:06:29;2.63;;;2.43;;
15449;SDS011;7826;49.784;9.934;2023-02-28T05:08:59;2.77;;;2.57;;
15449;SDS011;7826;49.784;9.934;2023-02-28T05:11:30;4.17;;;2.93;;
15449;SDS011;7826;49.784;9.934;2023-02-28T05:14:03;3.53;;;2.37;;
15449;SDS011;7826;49.784;9.934;2023-02-28T05:16:31;3.67;;;2.60;;
15449;SDS011;7826;49.784;9.934;2023-02-28T05:18:57;3.13;;;2.37;;
15449;SDS011;7826;49.784;9.934;2023-02-28T05:22:10;3.73;;;3.30;;
15449;SDS011;7826;49.784;9.934;2023-02-28T05:24:17;3.97;;;2.80;;
15449;SDS011;7826;49.784;9.934;2023-02-28T05:26:49;3.20;;;2.63;;
15449;SDS011;7826;49.784;9.934;2023-02-28T05:29:18;3.23;;;2.70;;
15449;SDS011;7826;49.784;9.934;2023-02-28T05:31:45;3.27;;;2.33;;
15449;SDS011;7826;49.784;9.934;2023-02-28T05:34:11;3.70;;;2.60;;
15449;SDS011;7826;49.784;9.934;2023-02-28T05:36:38;2.87;;;2.67;;
15449;SDS011;7826;49.784;9.934;2023-02-28T05:39:05;7.83;;;2.80;;
15449;SDS011;7826;49.784;9.934;2023-02-28T05:41:33;4.73;;;2.63;;
15449;SDS011;7826;49.784;9.934;2023-02-28T05:43:59;4.87;;;2.67;;
15449;SDS011;7826;49.784;9.934;2023-02-28T05:46:26;3.93;;;2.90;;
15449;SDS011;7826;49.784;9.934;2023-02-28T05:48:53;3.90;;;2.73;;
15449;SDS011;7826;49.784;9.934;2023-02-28T05:51:21;4.17;;;2.33;;
15449;SDS011;7826;49.784;9.934;2023-02-28T05:53:47;3.60;;;2.70;;
15449;SDS011;7826;49.784;9.934;2023-02-28T05:56:14;5.57;;;2.77;;
15449;SDS011;7826;49.784;9.934;2023-02-28T05:58:41;3.10;;;2.70;;
15449;SDS011;7826;49.784;9.934;2023-02-28T06:04:08;3.33;;;2.50;;
15449;SDS011;7826;49.784;9.934;2023-02-28T06:06:36;3.57;;;2.03;;
15449;SDS011;7826;49.784;9.934;2023-02-28T06:09:03;2.33;;;2.13;;
15449;SDS011;7826;49.784;9.934;2023-02-28T06:11:30;4.37;;;2.57;;
15449;SDS011;7826;49.784;9.934;2023-02-28T06:13:57;2.83;;;2.57;;
15449;SDS011;7826;49.784;9.934;2023-02-28T06:16:28;3.43;;;2.67;;
15449;SDS011;7826;49.784;9.934;2023-02-28T06:18:56;2.33;;;2.13;;
15449;SDS011;7826;49.784;9.934;2023-02-28T06:21:23;3.53;;;2.33;;
15449;SDS011;7826;49.784;9.934;2023-02-28T06:23:50;3.00;;;2.17;;
15449;SDS011;7826;49.784;9.934;2023-02-28T06:26:16;2.13;;;2.03;;
15449;SDS011;7826;49.784;9.934;2023-02-28T06:28:43;2.67;;;2.47;;
15449;SDS011;7826;49.784;9.934;2023-02-28T06:31:10;3.53;;;2.53;;
15449;SDS011;7826;49.784;9.934;2023-02-28T06:33:41;2.83;;;2.27;;
15449;SDS011;7826;49.784;9.934;2023-02-28T06:36:09;2.37;;;2.17;;
15449;SDS011;7826;49.784;9.934;2023-02-28T06:38:36;4.13;;;2.87;;
15449;SDS011;7826;49.784;9.934;2023-02-28T06:41:04;1.97;;;1.77;;
15449;SDS011;7826;49.784;9.934;2023-02-28T06:43:33;4.70;;;2.60;;
15449;SDS011;7826;49.784;9.934;2023-02-28T06:46:02;2.77;;;2.47;;
15449;SDS011;7826;49.784;9.934;2023-02-28T06:48:30;3.97;;;2.67;;
15449;SDS011;7826;49.784;9.934;2023-02-28T06:51:04;3.73;;;2.40;;
15449;SDS011;7826;49.784;9.934;2023-02-28T06:53:32;3.57;;;2.17;;
15449;SDS011;7826;49.784;9.934;2023-02-28T06:55:59;6.20;;;2.73;;
15449;SDS011;7826;49.784;9.934;2023-02-28T06:58:25;2.80;;;2.37;;
15449;SDS011;7826;49.784;9.934;2023-02-28T07:00:52;2.23;;;2.07;;
15449;SDS011;7826;49.784;9.934;2023-02-28T07:03:18;2.60;;;2.30;;
15449;SDS011;7826;49.784;9.934;2023-02-28T07:05:45;5.40;;;3.20;;
15449;SDS011;7826;49.784;9.934;2023-02-28T07:08:12;3.00;;;2.50;;
15449;SDS011;7826;49.784;9.934;2023-02-28T07:10:39;4.27;;;2.60;;
15449;SDS011;7826;49.784;9.934;2023-02-28T07:13:06;3.33;;;3.00;;
15449;SDS011;7826;49.784;9.934;2023-02-28T07:15:35;2.90;;;2.27;;
15449;SDS011;7826;49.784;9.934;2023-02-28T07:18:02;3.20;;;2.90;;
15449;SDS011;7826;49.784;9.934;2023-02-28T07:20:29;4.30;;;2.40;;
15449;SDS011;7826;49.784;9.934;2023-02-28T07:22:56;5.00;;;2.93;;
15449;SDS011;7826;49.784;9.934;2023-02-28T07:25:23;4.20;;;2.90;;
15449;SDS011;7826;49.784;9.934;2023-02-28T07:27:53;3.47;;;2.37;;
15449;SDS011;7826;49.784;9.934;2023-02-28T07:30:20;5.23;;;3.07;;
15449;SDS011;7826;49.784;9.934;2023-02-28T07:32:47;4.53;;;2.77;;
15449;SDS011;7826;49.784;9.934;2023-02-28T07:35:14;3.67;;;2.53;;
15449;SDS011;7826;49.784;9.934;2023-02-28T07:37:43;2.97;;;2.57;;
15449;SDS011;7826;49.784;9.934;2023-02-28T07:40:10;2.63;;;2.33;;
15449;SDS011;7826;49.784;9.934;2023-02-28T07:42:38;4.13;;;2.60;;
15449;SDS011;7826;49.784;9.934;2023-02-28T07:45:06;4.23;;;3.13;;
15449;SDS011;7826;49.784;9.934;2023-02-28T07:47:34;2.60;;;2.40;;
15449;SDS011;7826;49.784;9.934;2023-02-28T07:50:00;5.10;;;3.53;;
15449;SDS011;7826;49.784;9.934;2023-02-28T07:52:27;3.93;;;2.87;;
15449;SDS011;7826;49.784;9.934;2023-02-28T07:54:53;4.70;;;3.00;;
15449;SDS011;7826;49.784;9.934;2023-02-28T07:57:21;3.83;;;2.90;;
15449;SDS011;7826;49.784;9.934;2023-02-28T07:59:47;2.87;;;2.33;;
15449;SDS011;7826;49.784;9.934;2023-02-28T08:02:17;3.57;;;2.80;;
15449;SDS011;7826;49.784;9.934;2023-02-28T08:04:44;5.57;;;3.47;;
15449;SDS011;7826;49.784;9.934;2023-02-28T08:07:14;5.03;;;3.23;;
15449;SDS011;7826;49.784;9.934;2023-02-28T08:09:42;4.33;;;2.97;;
15449;SDS011;7826;49.784;9.934;2023-02-28T08:12:11;4.97;;;3.43;;
15449;SDS011;7826;49.784;9.934;2023-02-28T08:14:38;6.43;;;3.33;;
15449;SDS011;7826;49.784;9.934;2023-02-28T08:17:05;4.83;;;3.47;;
15449;SDS011;7826;49.784;9.934;2023-02-28T08:19:32;3.87;;;2.87;;
15449;SDS011;7826;49.784;9.934;2023-02-28T08:21:58;4.00;;;3.13;;
15449;SDS011;7826;49.784;9.934;2023-02-28T08:24:24;5.13;;;3.23;;
15449;SDS011;7826;49.784;9.934;2023-02-28T08:26:51;5.07;;;3.37;;
15449;SDS011;7826;49.784;9.934;2023-02-28T08:29:17;4.33;;;3.10;;
15449;SDS011;7826;49.784;9.934;2023-02-28T08:31:43;3.60;;;3.30;;
15449;SDS011;7826;49.784;9.934;2023-02-28T08:34:14;3.97;;;3.10;;
15449;SDS011;7826;49.784;9.934;2023-02-28T08:36:41;4.80;;;3.40;;
15449;SDS011;7826;49.784;9.934;2023-02-28T08:39:12;4.37;;;3.03;;
15449;SDS011;7826;49.784;9.934;2023-02-28T08:41:38;4.60;;;3.47;;
15449;SDS011;7826;49.784;9.934;2023-02-28T08:44:05;4.57;;;3.40;;
15449;SDS011;7826;49.784;9.934;2023-02-28T08:46:31;4.33;;;3.40;;
15449;SDS011;7826;49.784;9.934;2023-02-28T08:48:58;4.47;;;3.60;;
15449;SDS011;7826;49.784;9.934;2023-02-28T08:51:26;4.03;;;3.60;;
15449;SDS011;7826;49.784;9.934;2023-02-28T08:53:57;4.40;;;3.60;;
15449;SDS011;7826;49.784;9.934;2023-02-28T08:56:26;5.67;;;3.83;;
15449;SDS011;7826;49.784;9.934;2023-02-28T08:58:55;4.33;;;3.07;;
15449;SDS011;7826;49.784;9.934;2023-02-28T09:01:23;3.73;;;3.33;;
15449;SDS011;7826;49.784;9.934;2023-02-28T09:03:53;5.63;;;4.20;;
15449;SDS011;7826;49.784;9.934;2023-02-28T09:06:22;3.67;;;3.33;;
15449;SDS011;7826;49.784;9.934;2023-02-28T09:08:50;4.70;;;3.73;;
15449;SDS011;7826;49.784;9.934;2023-02-28T09:11:17;3.97;;;3.23;;
15449;SDS011;7826;49.784;9.934;2023-02-28T09:13:45;5.20;;;3.80;;
15449;SDS011;7826;49.784;9.934;2023-02-28T09:16:13;6.53;;;3.93;;
15449;SDS011;7826;49.784;9.934;2023-02-28T09:18:41;4.13;;;3.73;;
15449;SDS011;7826;49.784;9.934;2023-02-28T09:21:09;4.97;;;3.83;;
15449;SDS011;7826;49.784;9.934;2023-02-28T09:23:39;5.83;;;3.90;;
15449;SDS011;7826;49.784;9.934;2023-02-28T09:26:07;5.40;;;3.87;;
15449;SDS011;7826;49.784;9.934;2023-02-28T09:28:33;4.73;;;3.70;;
15449;SDS011;7826;49.784;9.934;2023-02-28T09:31:00;4.53;;;3.83;;
15449;SDS011;7826;49.784;9.934;2023-02-28T09:33:27;4.10;;;3.20;;
15449;SDS011;7826;49.784;9.934;2023-02-28T09:35:58;5.77;;;4.07;;
15449;SDS011;7826;49.784;9.934;2023-02-28T09:38:26;5.23;;;3.43;;
15449;SDS011;7826;49.784;9.934;2023-02-28T09:41:01;4.87;;;3.60;;
15449;SDS011;7826;49.784;9.934;2023-02-28T09:43:34;5.73;;;4.10;;
15449;SDS011;7826;49.784;9.934;2023-02-28T09:48:50;4.60;;;3.80;;
15449;SDS011;7826;49.784;9.934;2023-02-28T09:51:33;7.67;;;3.53;;
15449;SDS011;7826;49.784;9.934;2023-02-28T09:54:01;4.10;;;3.40;;
15449;SDS011;7826;49.784;9.934;2023-02-28T09:56:29;5.03;;;3.57;;
15449;SDS011;7826;49.784;9.934;2023-02-28T10:04:42;4.57;;;3.47;;
15449;SDS011;7826;49.784;9.934;2023-02-28T10:07:46;5.40;;;3.93;;
15449;SDS011;7826;49.784;9.934;2023-02-28T10:10:37;5.00;;;3.23;;
15449;SDS011;7826;49.784;9.934;2023-02-28T10:13:04;4.87;;;3.63;;
15449;SDS011;7826;49.784;9.934;2023-02-28T10:15:40;3.73;;;2.63;;
15449;SDS011;7826;49.784;9.934;2023-02-28T10:18:11;6.07;;;3.70;;
15449;SDS011;7826;49.784;9.934;2023-02-28T10:20:41;5.17;;;3.17;;
15449;SDS011;7826;49.784;9.934;2023-02-28T10:25:36;6.00;;;4.07;;
15449;SDS011;7826;49.784;9.934;2023-02-28T10:28:10;5.73;;;3.50;;
15449;SDS011;7826;49.784;9.934;2023-02-28T10:30:42;5.60;;;3.60;;
15449;SDS011;7826;49.784;9.934;2023-02-28T10:33:22;5.57;;;3.90;;
15449;SDS011;7826;49.784;9.934;2023-02-28T10:36:03;6.73;;;3.63;;
15449;SDS011;7826;49.784;9.934;2023-02-28T10:38:33;3.60;;;2.50;;
15449;SDS011;7826;49.784;9.934;2023-02-28T10:41:11;4.93;;;3.67;;
15449;SDS011;7826;49.784;9.934;2023-02-28T10:43:41;6.20;;;3.43;;
15449;SDS011;7826;49.784;9.934;2023-02-28T10:48:41;6.97;;;3.50;;
15449;SDS011;7826;49.784;9.934;2023-02-28T10:51:14;5.57;;;3.60;;
15449;SDS011;7826;49.784;9.934;2023-02-28T10:56:16;5.03;;;3.50;;
15449;SDS011;7826;49.784;9.934;2023-02-28T11:01:47;4.53;;;3.57;;
15449;SDS011;7826;49.784;9.934;2023-02-28T11:04:20;6.50;;;3.60;;
15449;SDS011;7826;49.784;9.934;2023-02-28T11:06:59;4.97;;;4.33;;
15449;SDS011;7826;49.784;9.934;2023-02-28T11:09:29;4.47;;;2.87;;
15449;SDS011;7826;49.784;9.934;2023-02-28T11:12:05;3.53;;;2.80;;
15449;SDS011;7826;49.784;9.934;2023-02-28T11:14:52;8.73;;;4.23;;
15449;SDS011;7826;49.784;9.934;2023-02-28T11:17:31;5.20;;;3.70;;
15449;SDS011;7826;49.784;9.934;2023-02-28T11:19:59;5.27;;;3.67;;
15449;SDS011;7826;49.784;9.934;2023-02-28T11:22:31;5.10;;;3.53;;
15449;SDS011;7826;49.784;9.934;2023-02-28T11:25:02;5.83;;;3.60;;
15449;SDS011;7826;49.784;9.934;2023-02-28T11:27:49;4.73;;;3.90;;
15449;SDS011;7826;49.784;9.934;2023-02-28T11:30:31;5.47;;;3.47;;
15449;SDS011;7826;49.784;9.934;2023-02-28T11:33:00;4.10;;;3.23;;
15449;SDS011;7826;49.784;9.934;2023-02-28T11:35:43;7.03;;;4.20;;
15449;SDS011;7826;49.784;9.934;2023-02-28T11:38:11;4.60;;;3.53;;
15449;SDS011;7826;49.784;9.934;2023-02-28T11:48:42;4.10;;;3.43;;
15449;SDS011;7826;49.784;9.934;2023-02-28T11:51:33;6.47;;;4.37;;
15449;SDS011;7826;49.784;9.934;2023-02-28T11:54:12;5.20;;;3.97;;
15449;SDS011;7826;49.784;9.934;2023-02-28T11:56:47;5.17;;;3.07;;
15449;SDS011;7826;49.784;9.934;2023-02-28T12:05:30;4.40;;;3.67;;
15449;SDS011;7826;49.784;9.934;2023-02-28T12:08:11;4.03;;;3.40;;
15449;SDS011;7826;49.784;9.934;2023-02-28T12:22:17;4.37;;;3.33;;
15449;SDS011;7826;49.784;9.934;2023-02-28T12:27:50;5.93;;;4.00;;
15449;SDS011;7826;49.784;9.934;2023-02-28T12:32:49;4.57;;;3.80;;
15449;SDS011;7826;49.784;9.934;2023-02-28T12:35:33;4.63;;;3.37;;
15449;SDS011;7826;49.784;9.934;2023-02-28T12:38:05;5.50;;;4.13;;
15449;SDS011;7826;49.784;9.934;2023-02-28T12:41:00;8.73;;;4.53;;
15449;SDS011;7826;49.784;9.934;2023-02-28T12:43:35;7.37;;;3.63;;
15449;SDS011;7826;49.784;9.934;2023-02-28T12:48:37;6.03;;;4.43;;
15449;SDS011;7826;49.784;9.934;2023-02-28T12:51:08;5.10;;;3.60;;
15449;SDS011;7826;49.784;9.934;2023-02-28T12:56:32;5.20;;;3.83;;
15449;SDS011;7826;49.784;9.934;2023-02-28T12:59:04;3.83;;;3.23;;
15449;SDS011;7826;49.784;9.934;2023-02-28T13:01:54;6.00;;;3.97;;
15449;SDS011;7826;49.784;9.934;2023-02-28T13:10:07;5.40;;;4.57;;
15449;SDS011;7826;49.784;9.934;2023-02-28T13:12:35;6.17;;;4.17;;
15449;SDS011;7826;49.784;9.934;2023-02-28T13:15:07;5.40;;;4.13;;
15449;SDS011;7826;49.784;9.934;2023-02-28T13:17:42;6.10;;;4.53;;
15449;SDS011;7826;49.784;9.934;2023-02-28T13:20:16;5.93;;;3.97;;
15449;SDS011;7826;49.784;9.934;2023-02-28T13:22:47;5.07;;;3.70;;
15449;SDS011;7826;49.784;9.934;2023-02-28T13:28:07;5.63;;;4.20;;
15449;SDS011;7826;49.784;9.934;2023-02-28T13:38:50;5.47;;;4.30;;
15449;SDS011;7826;49.784;9.934;2023-02-28T13:41:40;8.30;;;4.33;;
15449;SDS011;7826;49.784;9.934;2023-02-28T13:44:11;5.57;;;4.20;;
15449;SDS011;7826;49.784;9.934;2023-02-28T13:49:25;6.83;;;4.40;;
15449;SDS011;7826;49.784;9.934;2023-02-28T14:03:38;6.97;;;4.63;;
15449;SDS011;7826;49.784;9.934;2023-02-28T14:09:00;5.60;;;3.80;;
15449;SDS011;7826;49.784;9.934;2023-02-28T14:11:35;5.80;;;3.70;;
15449;SDS011;7826;49.784;9.934;2023-02-28T14:14:04;7.17;;;4.17;;
15449;SDS011;7826;49.784;9.934;2023-02-28T14:16:40;4.97;;;4.00;;
15449;SDS011;7826;49.784;9.934;2023-02-28T14:19:12;6.20;;;4.33;;
15449;SDS011;7826;49.784;9.934;2023-02-28T14:21:53;4.87;;;3.47;;
15449;SDS011;7826;49.784;9.934;2023-02-28T14:30:29;6.10;;;3.73;;
15449;SDS011;7826;49.784;9.934;2023-02-28T14:36:21;6.10;;;4.37;;
15449;SDS011;7826;49.784;9.934;2023-02-28T14:38:52;7.90;;;4.23;;
15449;SDS011;7826;49.784;9.934;2023-02-28T14:41:27;6.93;;;4.70;;
15449;SDS011;7826;49.784;9.934;2023-02-28T14:43:57;5.53;;;4.33;;
15449;SDS011;7826;49.784;9.934;2023-02-28T14:46:26;6.37;;;4.33;;
15449;SDS011;7826;49.784;9.934;2023-02-28T14:49:01;4.73;;;3.73;;
15449;SDS011;7826;49.784;9.934;2023-02-28T14:51:28;6.67;;;4.23;;
15449;SDS011;7826;49.784;9.934;2023-02-28T14:53:57;7.10;;;4.67;;
15449;SDS011;7826;49.784;9.934;2023-02-28T14:56:35;5.67;;;4.10;;
15449;SDS011;7826;49.784;9.934;2023-02-28T14:59:04;5.50;;;4.27;;
15449;SDS011;7826;49.784;9.934;2023-02-28T15:01:48;9.90;;;4.17;;
15449;SDS011;7826;49.784;9.934;2023-02-28T15:04:18;6.37;;;4.17;;
15449;SDS011;7826;49.784;9.934;2023-02-28T15:07:10;5.77;;;3.90;;
15449;SDS011;7826;49.784;9.934;2023-02-28T15:09:39;7.77;;;4.73;;
15449;SDS011;7826;49.784;9.934;2023-02-28T15:12:07;5.47;;;3.93;;
15449;SDS011;7826;49.784;9.934;2023-02-28T15:14:42;5.63;;;4.37;;
15449;SDS011;7826;49.784;9.934;2023-02-28T15:17:13;4.30;;;3.87;;
15449;SDS011;7826;49.784;9.934;2023-02-28T15:19:48;5.50;;;3.90;;
15449;SDS011;7826;49.784;9.934;2023-02-28T15:22:19;6.93;;;3.97;;
15449;SDS011;7826;49.784;9.934;2023-02-28T15:24:53;5.83;;;3.83;;
15449;SDS011;7826;49.784;9.934;2023-02-28T15:27:21;4.07;;;2.80;;
15449;SDS011;7826;49.784;9.934;2023-02-28T15:29:53;8.33;;;4.07;;
15449;SDS011;7826;49.784;9.934;2023-02-28T15:32:35;5.90;;;3.70;;
15449;SDS011;7826;49.784;9.934;2023-02-28T15:35:20;6.53;;;3.90;;
15449;SDS011;7826;49.784;9.934;2023-02-28T15:40:29;8.83;;;4.33;;
15449;SDS011;7826;49.784;9.934;2023-02-28T15:50:56;6.53;;;4.33;;
15449;SDS011;7826;49.784;9.934;2023-02-28T15:53:37;7.23;;;4.43;;
15449;SDS011;7826;49.784;9.934;2023-02-28T15:56:24;4.83;;;3.60;;
15449;SDS011;7826;49.784;9.934;2023-02-28T15:58:53;5.00;;;3.50;;
15449;SDS011;7826;49.784;9.934;2023-02-28T16:01:26;7.17;;;4.40;;
15449;SDS011;7826;49.784;9.934;2023-02-28T16:03:57;6.13;;;3.70;;
15449;SDS011;7826;49.784;9.934;2023-02-28T16:09:03;4.53;;;4.13;;
15449;SDS011;7826;49.784;9.934;2023-02-28T16:11:32;5.23;;;3.97;;
15449;SDS011;7826;49.784;9.934;2023-02-28T16:13:59;4.87;;;3.83;;
15449;SDS011;7826;49.784;9.934;2023-02-28T16:16:26;4.47;;;3.63;;
15449;SDS011;7826;49.784;9.934;2023-02-28T16:18:52;7.28;;;5.15;;
15449;SDS011;7826;49.784;9.934;2023-02-28T16:21:19;5.60;;;3.87;;
15449;SDS011;7826;49.784;9.934;2023-02-28T16:23:46;6.03;;;4.10;;
15449;SDS011;7826;49.784;9.934;2023-02-28T16:26:18;5.20;;;4.20;;
15449;SDS011;7826;49.784;9.934;2023-02-28T16:28:49;6.47;;;4.23;;
15449;SDS011;7826;49.784;9.934;2023-02-28T16:31:17;4.83;;;3.60;;
15449;SDS011;7826;49.784;9.934;2023-02-28T16:33:44;10.77;;;4.30;;
15449;SDS011;7826;49.784;9.934;2023-02-28T16:36:19;8.67;;;4.23;;
15449;SDS011;7826;49.784;9.934;2023-02-28T16:38:47;7.83;;;4.57;;
15449;SDS011;7826;49.784;9.934;2023-02-28T16:41:17;5.93;;;4.30;;
15449;SDS011;7826;49.784;9.934;2023-02-28T16:43:45;7.40;;;4.10;;
15449;SDS011;7826;49.784;9.934;2023-02-28T16:46:14;4.80;;;3.80;;
15449;SDS011;7826;49.784;9.934;2023-02-28T16:48:43;8.00;;;4.33;;
15449;SDS011;7826;49.784;9.934;2023-02-28T16:51:13;4.73;;;3.80;;
15449;SDS011;7826;49.784;9.934;2023-02-28T16:53:40;9.37;;;4.23;;
15449;SDS011;7826;49.784;9.934;2023-02-28T16:56:41;5.33;;;4.17;;
15449;SDS011;7826;49.784;9.934;2023-02-28T16:59:01;6.63;;;3.93;;
15449;SDS011;7826;49.784;9.934;2023-02-28T17:01:28;9.43;;;5.50;;
15449;SDS011;7826;49.784;9.934;2023-02-28T17:03:54;9.37;;;4.90;;
15449;SDS011;7826;49.784;9.934;2023-02-28T17:06:24;10.30;;;4.57;;
15449;SDS011;7826;49.784;9.934;2023-02-28T17:08:55;5.60;;;4.10;;
15449;SDS011;7826;49.784;9.934;2023-02-28T17:11:23;7.30;;;4.77;;
15449;SDS011;7826;49.784;9.934;2023-02-28T17:13:51;6.93;;;4.33;;
15449;SDS011;7826;49.784;9.934;2023-02-28T17:16:29;9.80;;;4.97;;
15449;SDS011;7826;49.784;9.934;2023-02-28T17:18:58;5.33;;;4.23;;
15449;SDS011;7826;49.784;9.934;2023-02-28T17:21:26;8.50;;;5.47;;
15449;SDS011;7826;49.784;9.934;2023-02-28T17:23:52;7.07;;;4.53;;
15449;SDS011;7826;49.784;9.934;2023-02-28T17:26:20;8.07;;;4.63;;
15449;SDS011;7826;49.784;9.934;2023-02-28T17:28:48;5.77;;;5.07;;
15449;SDS011;7826;49.784;9.934;2023-02-28T17:31:14;7.90;;;4.63;;
15449;SDS011;7826;49.784;9.934;2023-02-28T17:33:41;10.13;;;4.90;;
15449;SDS011;7826;49.784;9.934;2023-02-28T17:36:14;8.97;;;5.73;;
15449;SDS011;7826;49.784;9.934;2023-02-28T17:38:43;6.70;;;4.70;;
15449;SDS011;7826;49.784;9.934;2023-02-28T17:41:10;7.97;;;5.23;;
15449;SDS011;7826;49.784;9.934;2023-02-28T17:43:37;6.90;;;4.93;;
15449;SDS011;7826;49.784;9.934;2023-02-28T17:46:03;18.23;;;5.47;;
15449;SDS011;7826;49.784;9.934;2023-02-28T17:48:31;11.13;;;4.70;;
15449;SDS011;7826;49.784;9.934;2023-02-28T17:50:58;9.87;;;5.23;;
15449;SDS011;7826;49.784;9.934;2023-02-28T17:53:25;7.90;;;4.90;;